Time;durP1;ratioP1;P1;durP2;ratioP2;P2;SDS_P1;SDS_P2;PMS_P1;PMS_P2;Temp;Humidity;BMP_temperature;BMP_pressure;BME280_temperature;BME280_humidity;BME280_pressure;Samples;Min_cycle;Max_cycle;Signal;HPM_P1;HPM_P2
2023/09/14 00:01:08;;;;;;;3.63;3.30;;;;;;;17.21;100.00;97030.53;5112915;28;20223;-61
2023/09/14 00:03:35;;;;;;;4.30;3.35;;;;;;;17.21;100.00;97027.84;5112377;28;20968;-62
2023/09/14 00:06:03;;;;;;;3.80;3.40;;;;;;;17.22;100.00;97039.34;5112199;28;20201;-60
2023/09/14 00:08:31;;;;;;;3.78;3.50;;;;;;;17.16;100.00;97035.56;5112549;28;20205;-60
2023/09/14 00:10:58;;;;;;;5.05;3.60;;;;;;;17.19;100.00;97029.00;5113870;28;20205;-61
2023/09/14 00:13:25;;;;;;;4.43;3.42;;;;;;;17.20;100.00;97030.69;5113614;28;20197;-63
2023/09/14 00:15:52;;;;;;;4.72;3.75;;;;;;;17.21;100.00;97035.03;5113112;28;20193;-60
2023/09/14 00:18:20;;;;;;;4.07;3.78;;;;;;;17.18;100.00;97032.72;5112557;28;20213;-59
2023/09/14 00:20:47;;;;;;;4.25;3.80;;;;;;;17.17;100.00;97036.38;5112799;28;20217;-61
2023/09/14 00:23:13;;;;;;;3.72;3.42;;;;;;;17.17;100.00;97041.72;5112766;28;20198;-60
2023/09/14 00:25:41;;;;;;;4.75;3.65;;;;;;;17.17;100.00;97031.03;5111507;28;20205;-61
2023/09/14 00:28:07;;;;;;;3.70;3.40;;;;;;;17.15;100.00;97033.03;5111189;28;20232;-60
2023/09/14 00:30:34;;;;;;;5.13;3.65;;;;;;;17.14;100.00;97031.41;5111384;28;20201;-62
2023/09/14 00:33:01;;;;;;;3.65;3.35;;;;;;;17.17;100.00;97028.38;5111249;28;20212;-62
2023/09/14 00:35:27;;;;;;;5.32;3.88;;;;;;;17.17;100.00;97036.38;5110910;28;20218;-60
2023/09/14 00:37:54;;;;;;;4.20;3.90;;;;;;;17.16;100.00;97032.03;5111162;28;20216;-61
2023/09/14 00:40:21;;;;;;;3.30;3.10;;;;;;;17.19;100.00;97024.50;5110408;28;20221;-59
2023/09/14 00:42:51;;;;;;;3.50;3.30;;;;;;;17.21;100.00;97024.34;5111111;28;20580;-58
2023/09/14 00:45:21;;;;;;;3.20;3.00;;;;;;;17.16;100.00;97029.38;5111133;28;20241;-61
2023/09/14 00:47:49;;;;;;;3.35;3.10;;;;;;;17.13;100.00;97029.72;5110610;28;20205;-60
2023/09/14 00:50:17;;;;;;;3.92;3.63;;;;;;;17.10;100.00;97019.38;5111601;28;20201;-60
2023/09/14 00:52:45;;;;;;;4.07;3.40;;;;;;;17.11;100.00;97029.06;5110162;28;20282;-61
2023/09/14 00:55:15;;;;;;;3.95;3.50;;;;;;;17.13;100.00;97033.22;5110612;28;20212;-62
2023/09/14 00:57:41;;;;;;;4.15;3.53;;;;;;;17.14;100.00;97032.22;5110801;28;20233;-60
2023/09/14 01:00:11;;;;;;;4.82;3.25;;;;;;;17.14;100.00;97020.72;5110060;28;20217;-61
2023/09/14 01:02:38;;;;;;;3.78;3.47;;;;;;;17.16;100.00;97024.03;5113203;28;20205;-61
2023/09/14 01:05:06;;;;;;;3.65;3.45;;;;;;;17.13;100.00;97025.22;5114121;28;20201;-61
2023/09/14 01:07:34;;;;;;;4.25;3.83;;;;;;;17.14;100.00;97023.38;5114103;28;20215;-60
2023/09/14 01:10:00;;;;;;;3.88;3.58;;;;;;;17.12;100.00;97028.03;5114136;27;20212;-61
2023/09/14 01:12:27;;;;;;;4.00;3.70;;;;;;;17.10;100.00;97019.38;5114381;28;20212;-61
2023/09/14 01:14:59;;;;;;;5.00;3.70;;;;;;;17.09;100.00;97026.56;5114107;28;20564;-61
2023/09/14 01:17:32;;;;;;;4.20;3.78;;;;;;;17.06;100.00;97018.91;5114142;28;20200;-60
2023/09/14 01:20:03;;;;;;;4.68;4.15;;;;;;;17.05;100.00;97021.72;5113314;28;20594;-60
2023/09/14 01:22:36;;;;;;;4.72;3.72;;;;;;;17.05;100.00;97021.72;5114238;28;20282;-60
2023/09/14 01:25:09;;;;;;;3.83;3.58;;;;;;;17.04;100.00;97023.56;5113323;28;20205;-60
2023/09/14 01:27:37;;;;;;;4.57;4.18;;;;;;;17.03;100.00;97023.75;5113985;28;20193;-60
2023/09/14 01:30:04;;;;;;;5.40;4.78;;;;;;;16.98;100.00;97021.59;5113393;28;20247;-61
2023/09/14 01:32:31;;;;;;;4.50;4.18;;;;;;;16.99;100.00;97022.44;5114359;28;20234;-60
2023/09/14 01:34:57;;;;;;;4.13;3.83;;;;;;;17.02;100.00;97022.09;5113198;28;20194;-60
2023/09/14 01:37:24;;;;;;;4.95;4.18;;;;;;;17.02;100.00;97014.06;5114223;28;20740;-60
2023/09/14 01:39:53;;;;;;;4.47;4.10;;;;;;;17.00;100.00;97018.75;5113226;28;20224;-61
2023/09/14 01:42:20;;;;;;;4.65;4.25;;;;;;;16.99;100.00;97028.63;5113108;28;20622;-61
2023/09/14 01:44:49;;;;;;;5.72;4.70;;;;;;;16.97;100.00;97025.25;5113796;28;20209;-60
2023/09/14 01:47:17;;;;;;;4.82;4.53;;;;;;;16.96;100.00;97022.78;5113719;28;20201;-60
2023/09/14 01:49:46;;;;;;;4.82;4.38;;;;;;;16.91;100.00;97026.81;5113886;28;20201;-61
2023/09/14 01:52:13;;;;;;;5.00;4.70;;;;;;;16.95;100.00;97031.81;5113467;28;20524;-60
2023/09/14 01:54:39;;;;;;;4.78;4.22;;;;;;;16.95;100.00;97026.44;5113416;28;20197;-61
2023/09/14 01:57:05;;;;;;;4.85;4.38;;;;;;;16.98;100.00;97026.09;5113140;28;20205;-60
2023/09/14 01:59:34;;;;;;;4.80;4.50;;;;;;;17.00;100.00;97022.28;5113774;28;20208;-60
2023/09/14 02:02:02;;;;;;;4.93;4.47;;;;;;;16.98;100.00;97026.09;5113477;28;20553;-60
2023/09/14 02:04:29;;;;;;;6.30;5.05;;;;;;;17.04;100.00;97028.09;5113870;28;20517;-61
2023/09/14 02:06:55;;;;;;;6.82;4.80;;;;;;;17.04;100.00;97031.59;5113160;28;20220;-61
2023/09/14 02:09:23;;;;;;;7.15;4.80;;;;;;;16.98;100.00;97026.94;5113199;28;20193;-60
2023/09/14 02:11:49;;;;;;;4.93;4.50;;;;;;;17.05;100.00;97027.06;5112901;28;20582;-60
2023/09/14 02:14:16;;;;;;;4.55;4.18;;;;;;;17.05;100.00;97019.06;5115181;28;20204;-61
2023/09/14 02:16:42;;;;;;;4.60;4.25;;;;;;;17.03;100.00;97016.59;5113751;28;20527;-61
2023/09/14 02:19:10;;;;;;;4.75;4.00;;;;;;;17.02;100.00;97022.09;5113247;28;20205;-61
2023/09/14 02:21:37;;;;;;;5.63;4.32;;;;;;;16.93;100.00;97014.09;5113006;28;20229;-62
2023/09/14 02:24:04;;;;;;;4.07;3.88;;;;;;;16.92;100.00;97020.47;5114093;28;20206;-61
2023/09/14 02:26:30;;;;;;;4.03;3.72;;;;;;;16.89;100.00;97015.47;5113364;28;20197;-61
2023/09/14 02:28:57;;;;;;;4.50;4.03;;;;;;;16.87;100.00;97013.97;5113050;28;20229;-61
2023/09/14 02:31:25;;;;;;;3.97;3.78;;;;;;;16.85;100.00;97016.81;5113644;28;20230;-60
2023/09/14 02:33:52;;;;;;;4.50;4.20;;;;;;;16.81;100.00;97010.16;5113415;28;20212;-59
2023/09/14 02:36:21;;;;;;;4.15;3.95;;;;;;;16.75;100.00;97015.34;5095048;28;20197;-61
2023/09/14 02:38:47;;;;;;;5.65;3.92;;;;;;;16.75;100.00;97015.34;5113225;28;20197;-61
2023/09/14 02:41:14;;;;;;;3.92;3.72;;;;;;;16.76;100.00;97012.50;5113030;28;20217;-59
2023/09/14 02:43:40;;;;;;;3.97;3.63;;;;;;;16.77;100.00;97010.66;5113229;28;20208;-61
2023/09/14 02:46:07;;;;;;;3.60;3.40;;;;;;;16.72;100.00;97010.38;5112996;28;20209;-60
2023/09/14 02:48:33;;;;;;;3.50;3.30;;;;;;;16.72;100.00;97013.03;5113658;28;20205;-60
2023/09/14 02:51:00;;;;;;;4.05;3.60;;;;;;;16.75;100.00;97015.34;5112411;28;20216;-61
2023/09/14 02:53:27;;;;;;;3.83;3.63;;;;;;;16.81;100.00;97020.84;5113112;28;20208;-60
2023/09/14 02:55:54;;;;;;;3.92;3.65;;;;;;;16.76;100.00;97019.66;5111923;28;20225;-61
2023/09/14 02:58:21;;;;;;;4.25;3.95;;;;;;;16.68;100.00;97012.53;5112850;28;20211;-60
2023/09/14 03:00:48;;;;;;;4.25;3.85;;;;;;;16.75;100.00;97015.34;5112032;28;20236;-61
2023/09/14 03:03:14;;;;;;;4.60;4.20;;;;;;;16.79;100.00;97014.00;5112254;28;20284;-61
2023/09/14 03:05:40;;;;;;;3.75;3.55;;;;;;;16.77;100.00;97010.66;5112335;28;20201;-60
2023/09/14 03:08:07;;;;;;;4.43;3.63;;;;;;;16.68;100.00;97014.38;5112693;28;20202;-61
2023/09/14 03:10:35;;;;;;;4.85;4.38;;;;;;;16.63;100.00;97022.06;5111513;28;20205;-60
2023/09/14 03:13:02;;;;;;;3.90;3.60;;;;;;;16.61;100.00;97021.41;5111537;28;20585;-60
2023/09/14 03:15:28;;;;;;;4.30;4.00;;;;;;;16.61;100.00;97019.56;5111959;28;20201;-61
2023/09/14 03:17:55;;;;;;;4.20;3.90;;;;;;;16.62;100.00;97023.88;5112064;28;20233;-60
2023/09/14 03:20:22;;;;;;;3.97;3.75;;;;;;;16.56;100.00;97027.25;5111728;28;20236;-60
2023/09/14 03:22:49;;;;;;;4.38;4.03;;;;;;;16.50;100.00;97027.91;5112060;28;20502;-60
2023/09/14 03:25:15;;;;;;;4.85;4.25;;;;;;;16.50;100.00;97022.56;5092855;28;20201;-62
2023/09/14 03:27:44;;;;;;;3.97;3.67;;;;;;;16.47;100.00;97022.09;5111693;28;20205;-62
2023/09/14 03:30:11;;;;;;;3.92;3.63;;;;;;;16.48;100.00;97021.06;5111285;28;20229;-60
2023/09/14 03:32:39;;;;;;;3.72;3.40;;;;;;;16.43;100.00;97013.56;5111055;28;20201;-61
2023/09/14 03:35:06;;;;;;;3.90;3.50;;;;;;;16.44;100.00;97015.22;5111147;28;20216;-61
2023/09/14 03:37:32;;;;;;;6.72;3.38;;;;;;;16.42;100.00;97015.41;5111567;28;20197;-60
2023/09/14 03:39:59;;;;;;;3.70;3.50;;;;;;;16.42;100.00;97014.56;5111556;28;20201;-60
2023/09/14 03:42:25;;;;;;;5.05;3.85;;;;;;;16.43;100.00;97013.56;5111020;28;20236;-60
2023/09/14 03:44:53;;;;;;;6.38;4.18;;;;;;;16.43;100.00;97011.75;5112044;28;20208;-61
2023/09/14 03:47:19;;;;;;;5.60;4.07;;;;;;;16.41;100.00;97011.06;5110522;28;20621;-59
2023/09/14 03:49:46;;;;;;;5.57;4.07;;;;;;;16.41;100.00;97016.41;5111553;28;20224;-60
2023/09/14 03:52:12;;;;;;;4.38;4.07;;;;;;;16.39;100.00;97006.91;5111109;28;20197;-60
2023/09/14 03:54:39;;;;;;;4.70;4.40;;;;;;;16.36;100.00;97008.09;5110873;28;20638;-59
2023/09/14 03:57:14;;;;;;;4.47;3.83;;;;;;;16.36;100.00;97009.94;5111057;28;20235;-59
2023/09/14 03:59:40;;;;;;;4.63;4.28;;;;;;;16.30;100.00;97005.25;5111630;28;20526;-60
2023/09/14 04:02:08;;;;;;;4.13;3.83;;;;;;;16.35;100.00;97010.91;5111152;28;20223;-61
2023/09/14 04:04:35;;;;;;;4.88;4.30;;;;;;;16.33;100.00;97007.59;5111237;28;20580;-61
2023/09/14 04:07:03;;;;;;;4.80;4.40;;;;;;;16.33;100.00;97010.28;5110918;28;20204;-61
2023/09/14 04:09:29;;;;;;;7.00;4.43;;;;;;;16.34;100.00;97018.09;5110601;28;20201;-61
2023/09/14 04:11:56;;;;;;;4.78;4.03;;;;;;;16.38;100.00;97002.56;5111071;28;20212;-61
2023/09/14 04:14:22;;;;;;;7.25;3.85;;;;;;;16.37;100.00;97011.56;5110708;28;20193;-60
2023/09/14 04:16:51;;;;;;;4.18;3.83;;;;;;;16.32;100.00;97009.44;5110327;28;20661;-60
2023/09/14 04:19:18;;;;;;;3.88;3.60;;;;;;;16.27;100.00;97011.75;5111270;28;21081;-61
2023/09/14 04:21:45;;;;;;;6.60;4.07;;;;;;;16.26;100.00;97009.28;5120857;28;20213;-60
2023/09/14 04:24:12;;;;;;;3.92;3.58;;;;;;;16.24;100.00;97005.94;5120270;28;20205;-61
2023/09/14 04:26:38;;;;;;;4.45;3.60;;;;;;;16.27;100.00;97005.59;5117627;28;20220;-60
2023/09/14 04:29:05;;;;;;;4.00;3.70;;;;;;;16.29;100.00;97008.94;5112292;28;20235;-62
2023/09/14 04:31:31;;;;;;;4.18;3.65;;;;;;;16.29;100.00;97009.78;5111741;28;20644;-61
2023/09/14 04:33:58;;;;;;;4.28;3.97;;;;;;;16.27;100.00;97010.94;5112112;28;20240;-59
2023/09/14 04:36:26;;;;;;;4.85;4.50;;;;;;;16.31;100.00;97012.25;5112295;28;20209;-61
2023/09/14 04:38:52;;;;;;;5.97;3.70;;;;;;;16.32;100.00;97011.25;5115033;28;20216;-61
2023/09/14 04:41:19;;;;;;;4.40;3.95;;;;;;;16.33;100.00;97005.72;5115296;28;20325;-59
2023/09/14 04:43:45;;;;;;;4.45;4.10;;;;;;;16.30;100.00;97018.59;5115219;28;20208;-59
2023/09/14 04:46:12;;;;;;;3.75;3.45;;;;;;;16.33;100.00;97019.09;5114822;28;20201;-61
2023/09/14 04:48:41;;;;;;;4.65;3.95;;;;;;;16.33;100.00;97020.94;5115347;28;20210;-60
2023/09/14 04:51:08;;;;;;;3.65;3.38;;;;;;;16.38;100.00;97015.91;5114733;28;20258;-60
2023/09/14 04:53:35;;;;;;;7.05;4.30;;;;;;;16.40;100.00;97021.94;5114757;28;20197;-59
2023/09/14 04:56:02;;;;;;;4.30;3.90;;;;;;;16.43;100.00;97027.75;5113532;28;20526;-59
2023/09/14 04:58:28;;;;;;;5.07;4.40;;;;;;;16.47;100.00;97030.94;5115272;28;20197;-58
2023/09/14 05:00:55;;;;;;;4.13;3.92;;;;;;;16.47;100.00;97030.09;5114352;28;20216;-59
2023/09/14 05:03:21;;;;;;;4.50;4.10;;;;;;;16.47;100.00;97033.59;5115067;28;20205;-58
2023/09/14 05:05:52;;;;;;;4.95;4.55;;;;;;;16.50;100.00;97032.41;5114623;28;20209;-58
2023/09/14 05:08:18;;;;;;;4.75;4.40;;;;;;;16.53;100.00;97035.56;5114676;28;20212;-58
2023/09/14 05:10:49;;;;;;;5.28;4.20;;;;;;;16.56;100.00;97035.25;5114004;28;20208;-63
2023/09/14 05:13:15;;;;;;;4.88;4.47;;;;;;;16.60;100.00;97038.44;5114671;28;20201;-60
2023/09/14 05:15:42;;;;;;;5.00;4.57;;;;;;;16.60;100.00;97039.25;5114453;28;20209;-58
2023/09/14 05:18:08;;;;;;;5.10;4.70;;;;;;;16.64;100.00;97040.59;5114917;28;20201;-59
2023/09/14 05:20:35;;;;;;;5.82;5.32;;;;;;;16.66;100.00;97046.59;5114228;28;20205;-62
2023/09/14 05:23:01;;;;;;;5.93;5.53;;;;;;;16.68;100.00;97041.91;5113540;28;20225;-59
2023/09/14 05:25:27;;;;;;;7.80;6.88;;;;;;;16.72;100.00;97042.41;5113547;28;20213;-56
2023/09/14 05:27:55;;;;;;;7.70;6.57;;;;;;;16.77;100.00;97040.88;5113043;28;20201;-57
2023/09/14 05:30:24;;;;;;;8.48;7.68;;;;;;;16.80;100.00;97051.22;5114269;28;20205;-58
2023/09/14 05:32:51;;;;;;;7.65;6.80;;;;;;;16.83;100.00;97039.34;5114049;28;20221;-57
2023/09/14 05:35:18;;;;;;;8.23;7.53;;;;;;;16.85;100.00;97051.53;5113270;28;20539;-59
2023/09/14 05:37:44;;;;;;;11.13;10.13;;;;;;;16.82;100.00;97043.88;5112834;28;20201;-59
2023/09/14 05:40:12;;;;;;;10.60;9.70;;;;;;;16.86;100.00;97045.19;5113185;28;20201;-60
2023/09/14 05:42:39;;;;;;;10.20;9.30;;;;;;;16.87;100.00;97049.53;5113351;28;20254;-60
2023/09/14 05:45:09;;;;;;;10.93;9.77;;;;;;;16.91;100.00;97053.53;5113616;28;20197;-60
2023/09/14 05:47:37;;;;;;;12.63;11.40;;;;;;;16.91;100.00;97050.00;5113456;28;20215;-59
2023/09/14 05:50:04;;;;;;;11.90;10.80;;;;;;;16.91;100.00;97053.53;5114436;28;20399;-60
2023/09/14 05:52:31;;;;;;;11.13;10.07;;;;;;;16.91;100.00;97056.19;5113741;28;20201;-59
2023/09/14 05:54:57;;;;;;;12.05;10.77;;;;;;;16.95;100.00;97059.34;5113331;28;20521;-59
2023/09/14 05:57:24;;;;;;;11.52;10.57;;;;;;;16.98;100.00;97064.34;5113030;28;20201;-60
2023/09/14 05:59:50;;;;;;;12.38;11.18;;;;;;;16.96;100.00;97066.38;5113154;28;21382;-58
2023/09/14 06:02:19;;;;;;;12.50;11.30;;;;;;;16.97;100.00;97057.31;5113288;28;20480;-59
2023/09/14 06:04:45;;;;;;;12.27;11.18;;;;;;;16.97;100.00;97062.66;5113377;28;20197;-60
2023/09/14 06:07:12;;;;;;;12.75;11.20;;;;;;;16.99;100.00;97059.84;5113101;28;20231;-60
2023/09/14 06:09:38;;;;;;;13.27;12.00;;;;;;;16.97;100.00;97061.88;5112960;28;20208;-60
2023/09/14 06:12:06;;;;;;;13.02;11.70;;;;;;;16.95;100.00;97061.19;5112653;28;20193;-60
2023/09/14 06:14:33;;;;;;;11.82;10.73;;;;;;;16.97;100.00;97072.56;5113016;28;20216;-58
2023/09/14 06:16:59;;;;;;;11.65;10.63;;;;;;;16.92;100.00;97065.88;5113126;28;20209;-59
2023/09/14 06:19:27;;;;;;;12.30;9.65;;;;;;;16.91;100.00;97066.88;5113171;28;20197;-59
2023/09/14 06:21:53;;;;;;;11.63;9.02;;;;;;;16.93;100.00;97056.84;5111822;28;20221;-60
2023/09/14 06:24:20;;;;;;;10.73;9.68;;;;;;;16.90;100.00;97064.38;5112957;28;20201;-59
2023/09/14 06:26:47;;;;;;;11.35;9.73;;;;;;;16.93;100.00;97064.03;5112873;28;20197;-60
2023/09/14 06:29:16;;;;;;;10.48;9.48;;;;;;;16.90;100.00;97069.72;5112424;28;20555;-59
2023/09/14 06:31:43;;;;;;;14.93;10.45;;;;;;;16.89;100.00;97065.41;5112099;28;20689;-59
2023/09/14 06:34:10;;;;;;;11.25;9.85;;;;;;;16.89;100.00;97073.41;5124833;28;20209;-60
2023/09/14 06:36:37;;;;;;;11.10;9.98;;;;;;;16.95;100.00;97074.53;5126155;28;20201;-60
2023/09/14 06:39:05;;;;;;;11.95;9.23;;;;;;;16.90;100.00;97070.53;5120505;28;20208;-60
2023/09/14 06:41:31;;;;;;;10.32;9.20;;;;;;;16.90;100.00;97067.88;5113951;28;20205;-59
2023/09/14 06:43:58;;;;;;;11.98;9.60;;;;;;;16.89;100.00;97066.22;5113589;28;20644;-59
2023/09/14 06:46:24;;;;;;;13.82;10.32;;;;;;;16.91;100.00;97074.91;5112877;28;20527;-60
2023/09/14 06:48:51;;;;;;;10.95;9.20;;;;;;;16.95;100.00;97075.38;5113213;28;20201;-60
2023/09/14 06:51:17;;;;;;;12.15;10.57;;;;;;;16.98;100.00;97077.72;5115912;28;20209;-59
2023/09/14 06:53:46;;;;;;;10.32;9.18;;;;;;;16.96;100.00;97068.22;5115640;28;20204;-60
2023/09/14 06:56:13;;;;;;;13.50;10.48;;;;;;;17.00;100.00;97072.19;5115967;28;20205;-60
2023/09/14 06:58:40;;;;;;;10.65;9.70;;;;;;;16.95;100.00;97070.03;5113873;28;20220;-59
2023/09/14 07:01:06;;;;;;;10.23;9.23;;;;;;;16.93;100.00;97072.88;5113643;28;20197;-59
2023/09/14 07:03:34;;;;;;;11.43;9.95;;;;;;;16.92;100.00;97070.38;5113479;28;20225;-60
2023/09/14 07:06:01;;;;;;;10.85;9.65;;;;;;;16.95;100.00;97079.88;5113559;28;20208;-60
2023/09/14 07:08:28;;;;;;;10.63;9.73;;;;;;;16.99;100.00;97076.72;5112220;28;20646;-60
2023/09/14 07:10:56;;;;;;;13.70;10.77;;;;;;;17.04;100.00;97077.00;5112237;28;20208;-60
2023/09/14 07:13:23;;;;;;;11.20;10.10;;;;;;;17.09;100.00;97071.16;5112563;28;20201;-59
2023/09/14 07:15:50;;;;;;;12.00;10.82;;;;;;;17.09;100.00;97077.34;5112611;28;20201;-60
2023/09/14 07:18:27;;;;;;;12.35;10.55;;;;;;;17.07;100.00;97076.69;5111879;28;20224;-59
2023/09/14 07:20:54;;;;;;;13.05;10.65;;;;;;;17.13;100.00;97077.81;5112450;28;20205;-59
2023/09/14 07:23:21;;;;;;;10.38;9.48;;;;;;;17.16;100.00;97069.47;5111246;28;20298;-60
2023/09/14 07:25:47;;;;;;;11.30;10.20;;;;;;;17.25;100.00;97077.25;5111933;28;20201;-58
2023/09/14 07:28:16;;;;;;;10.55;9.55;;;;;;;17.32;100.00;97077.41;5111599;28;20699;-58
2023/09/14 07:30:42;;;;;;;10.15;9.25;;;;;;;17.36;100.00;97078.72;5112235;28;20197;-57
2023/09/14 07:33:09;;;;;;;11.75;10.63;;;;;;;17.34;100.00;97075.41;5112273;28;20262;-57
2023/09/14 07:35:36;;;;;;;11.35;10.20;;;;;;;17.37;100.00;97077.72;5112202;28;20681;-58
2023/09/14 07:38:02;;;;;;;11.43;10.52;;;;;;;17.35;100.00;97077.91;5111898;28;20533;-57
2023/09/14 07:40:29;;;;;;;11.25;10.25;;;;;;;17.34;100.00;97070.03;5111792;28;20209;-58
2023/09/14 07:42:55;;;;;;;11.23;10.20;;;;;;;17.36;100.00;97079.56;5111046;28;20240;-59
2023/09/14 07:45:23;;;;;;;11.57;10.48;;;;;;;17.39;100.00;97073.84;5111595;28;20197;-57
2023/09/14 07:47:50;;;;;;;11.40;10.30;;;;;;;17.37;100.00;97081.22;5111234;28;20201;-57
2023/09/14 07:50:16;;;;;;;10.80;9.70;;;;;;;17.39;100.00;97083.72;5111182;28;20197;-59
2023/09/14 07:52:43;;;;;;;11.07;9.82;;;;;;;17.45;100.00;97079.53;5111229;28;20333;-57
2023/09/14 07:55:09;;;;;;;11.30;10.40;;;;;;;17.51;100.00;97076.97;5111155;28;20213;-58
2023/09/14 07:57:36;;;;;;;11.32;10.02;;;;;;;17.58;100.00;97079.81;5111003;28;20197;-58
2023/09/14 08:00:03;;;;;;;10.63;9.57;;;;;;;17.66;100.00;97085.13;5111126;28;20197;-58
2023/09/14 08:02:31;;;;;;;10.40;9.40;;;;;;;17.67;100.00;97090.31;5110908;28;20586;-58
2023/09/14 08:04:59;;;;;;;11.55;10.27;;;;;;;17.69;100.00;97084.75;5110940;28;20205;-58
2023/09/14 08:07:27;;;;;;;10.95;9.95;;;;;;;17.77;100.00;97093.56;5110673;28;20209;-57
2023/09/14 08:09:53;;;;;;;11.45;9.90;;;;;;;17.81;100.00;97088.72;5093231;28;20520;-58
2023/09/14 08:12:20;;;;;;;11.63;10.60;;;;;;;17.86;100.00;97092.50;5112196;28;20208;-58
2023/09/14 08:14:47;;;;;;;11.77;10.32;;;;;;;17.92;100.00;97099.81;5111300;28;20205;-58
2023/09/14 08:17:13;;;;;;;11.13;10.13;;;;;;;18.06;100.00;97094.72;5111278;28;20657;-58
2023/09/14 08:19:41;;;;;;;9.95;9.15;;;;;;;18.17;100.00;97095.16;5111079;28;20216;-56
2023/09/14 08:22:07;;;;;;;10.00;9.20;;;;;;;18.37;100.00;97092.78;5110881;28;20209;-57
2023/09/14 08:24:34;;;;;;;10.77;9.60;;;;;;;18.54;100.00;97091.66;5110999;28;20201;-59
2023/09/14 08:27:00;;;;;;;10.43;9.52;;;;;;;18.65;100.00;97088.53;5111031;28;20196;-59
2023/09/14 08:29:26;;;;;;;10.20;9.10;;;;;;;18.72;100.00;97089.47;5110376;28;20233;-56
2023/09/14 08:31:53;;;;;;;10.20;9.40;;;;;;;18.83;100.00;97086.34;5111399;28;20212;-57
2023/09/14 08:34:20;;;;;;;10.07;9.07;;;;;;;18.87;100.00;97082.31;5110490;28;20212;-58
2023/09/14 08:36:48;;;;;;;9.30;8.50;;;;;;;19.05;100.00;97086.47;5111073;28;20201;-57
2023/09/14 08:39:14;;;;;;;9.38;8.68;;;;;;;19.13;100.00;97081.81;5110213;28;20216;-58
2023/09/14 08:41:41;;;;;;;10.05;9.25;;;;;;;19.21;100.00;97070.16;5111127;28;20193;-58
2023/09/14 08:44:07;;;;;;;9.13;8.32;;;;;;;19.52;100.00;97078.03;5110230;28;20229;-57
2023/09/14 08:46:35;;;;;;;9.00;8.20;;;;;;;19.59;100.00;97082.44;5112956;28;20197;-59
2023/09/14 08:49:04;;;;;;;9.05;8.18;;;;;;;19.66;100.00;97074.50;5114546;28;20204;-59
2023/09/14 08:51:33;;;;;;;11.30;8.48;;;;;;;19.78;100.00;97081.84;5114775;28;20209;-58
2023/09/14 08:54:01;;;;;;;11.75;8.55;;;;;;;19.75;100.00;97078.69;5111428;28;20197;-60
2023/09/14 08:56:27;;;;;;;9.52;7.75;;;;;;;19.74;100.00;97077.03;5111863;28;20241;-60
2023/09/14 08:58:55;;;;;;;8.52;7.65;;;;;;;19.72;100.00;97079.09;5111030;28;20197;-58
2023/09/14 09:01:22;;;;;;;8.00;7.18;;;;;;;19.80;100.00;97077.09;5111622;28;20197;-59
2023/09/14 09:03:48;;;;;;;7.88;7.05;;;;;;;19.85;100.00;97068.50;5111453;28;20224;-57
2023/09/14 09:06:19;;;;;;;7.88;7.03;;;;;;;19.87;100.00;97069.94;5111410;28;20197;-59
2023/09/14 09:08:45;;;;;;;7.90;7.22;;;;;;;20.01;100.00;97070.09;5111211;28;20193;-59
2023/09/14 09:11:13;;;;;;;10.30;7.60;;;;;;;19.93;100.00;97073.75;5111311;28;20205;-57
2023/09/14 09:13:42;;;;;;;8.95;8.02;;;;;;;19.91;100.00;97080.34;5111094;28;20679;-58
2023/09/14 09:16:11;;;;;;;7.38;6.80;;;;;;;20.04;100.00;97075.94;5111209;28;20287;-58
2023/09/14 09:19:01;;;;;;;7.82;7.13;;;;;;;20.08;100.00;97073.69;5110920;28;20259;-58
2023/09/14 09:21:28;;;;;;;7.90;6.95;;;;;;;20.26;100.00;97071.38;5111336;28;20250;-59
2023/09/14 09:23:55;;;;;;;7.97;7.00;;;;;;;20.45;100.00;97068.06;5113515;28;20248;-59
2023/09/14 09:26:24;;;;;;;8.30;7.60;;;;;;;20.43;100.00;97070.13;5114513;28;20193;-59
2023/09/14 09:28:50;;;;;;;7.75;6.45;;;;;;;20.75;100.00;97069.53;5114166;28;20309;-59
2023/09/14 09:31:17;;;;;;;8.38;7.57;;;;;;;20.73;100.00;97063.50;5114006;28;20197;-59
2023/09/14 09:33:46;;;;;;;9.55;7.95;;;;;;;20.65;100.00;97066.34;5114418;28;20197;-58
2023/09/14 09:36:16;;;;;;;9.55;7.68;;;;;;;20.69;100.00;97067.63;5113781;28;20197;-59
2023/09/14 09:38:43;;;;;;;10.13;7.60;;;;;;;20.51;100.00;97078.00;5114008;28;20209;-58
2023/09/14 09:41:11;;;;;;;7.75;7.05;;;;;;;20.47;100.00;97062.50;5113263;28;20297;-57
2023/09/14 09:43:39;;;;;;;8.15;7.38;;;;;;;20.32;100.00;97071.47;5114109;28;20221;-59
2023/09/14 09:46:14;;;;;;;8.90;7.15;;;;;;;20.17;100.00;97065.31;5113474;28;20204;-58
2023/09/14 09:48:41;;;;;;;8.40;7.60;;;;;;;20.03;100.00;97070.72;5114048;28;20298;-59
2023/09/14 09:51:07;;;;;;;8.98;8.18;;;;;;;19.93;100.00;97067.53;5113058;28;20197;-59
2023/09/14 09:53:35;;;;;;;8.27;7.57;;;;;;;20.10;100.00;97068.94;5113853;28;20209;-58
2023/09/14 09:56:02;;;;;;;8.07;7.47;;;;;;;20.15;100.00;97066.53;5113047;28;20209;-58
2023/09/14 09:58:34;;;;;;;9.45;8.20;;;;;;;20.29;100.00;97057.59;5113444;28;20219;-58
2023/09/14 10:01:02;;;;;;;9.25;8.38;;;;;;;20.38;100.00;97058.28;5113059;28;20229;-58
2023/09/14 10:03:30;;;;;;;9.05;8.10;;;;;;;20.47;100.00;97055.28;5113285;28;20216;-58
2023/09/14 10:05:56;;;;;;;9.40;8.50;;;;;;;20.51;100.00;97053.81;5113626;28;20507;-58
2023/09/14 10:08:23;;;;;;;9.88;8.25;;;;;;;20.40;100.00;97051.69;5113196;28;20530;-58
2023/09/14 10:10:52;;;;;;;9.02;8.13;;;;;;;20.39;100.00;97050.03;5113197;28;20219;-58
2023/09/14 10:13:20;;;;;;;7.97;7.25;;;;;;;20.35;100.00;97051.44;5113328;28;20216;-57
2023/09/14 10:15:47;;;;;;;7.38;6.78;;;;;;;20.37;100.00;97046.69;5113384;28;20216;-59
2023/09/14 10:18:15;;;;;;;7.00;6.40;;;;;;;20.74;100.00;97043.69;5113609;28;20209;-58
2023/09/14 10:20:42;;;;;;;8.10;7.30;;;;;;;20.92;100.00;97039.66;5112986;28;20667;-57
2023/09/14 10:23:10;;;;;;;9.80;7.65;;;;;;;20.68;100.00;97046.31;5112592;28;20676;-59
2023/09/14 10:25:37;;;;;;;7.40;6.70;;;;;;;20.89;100.00;97032.81;5113329;28;20203;-59
2023/09/14 10:28:05;;;;;;;7.13;6.57;;;;;;;20.85;100.00;97020.78;5112187;28;20205;-58
2023/09/14 10:30:32;;;;;;;6.65;6.05;;;;;;;20.96;100.00;97030.16;5112883;28;20556;-59
2023/09/14 10:32:59;;;;;;;8.18;7.47;;;;;;;20.97;100.00;97026.44;5112511;28;20205;-58
2023/09/14 10:35:28;;;;;;;7.38;6.68;;;;;;;21.09;100.00;97016.78;5113314;28;20263;-59
2023/09/14 10:37:55;;;;;;;7.53;6.82;;;;;;;21.10;100.00;97021.13;5113486;28;20539;-59
2023/09/14 10:40:22;;;;;;;7.55;6.63;;;;;;;21.01;100.00;97019.66;5113499;28;20209;-60
2023/09/14 10:42:48;;;;;;;6.82;6.30;;;;;;;21.05;100.00;97019.03;5113647;28;20664;-60
2023/09/14 10:45:15;;;;;;;6.90;6.07;;;;;;;21.28;100.00;97013.38;5113554;28;20196;-59
2023/09/14 10:47:45;;;;;;;7.57;6.88;;;;;;;21.42;100.00;97000.81;5113314;28;20216;-58
2023/09/14 10:50:12;;;;;;;6.68;6.10;;;;;;;21.47;100.00;97006.44;5112191;28;20216;-59
2023/09/14 10:52:42;;;;;;;6.03;5.43;;;;;;;21.48;100.00;96998.13;5111898;28;20644;-58
2023/09/14 10:55:09;;;;;;;6.65;6.15;;;;;;;21.39;100.00;96988.59;5112606;28;20251;-58
2023/09/14 10:57:40;;;;;;;6.47;5.88;;;;;;;21.34;100.00;96993.75;5125076;28;20212;-59
2023/09/14 11:00:08;;;;;;;6.13;5.07;;;;;;;21.56;100.00;96992.56;5116490;28;20197;-59
2023/09/14 11:02:54;;;;;;;6.18;5.60;;;;;;;21.63;100.00;96989.91;5114677;28;20205;-58
2023/09/14 11:05:23;;;;;;;5.25;4.85;;;;;;;21.59;100.00;96984.09;5112130;28;20208;-59
2023/09/14 11:07:57;;;;;;;5.68;5.13;;;;;;;21.84;100.00;96977.09;5112591;28;20387;-58
2023/09/14 11:10:24;;;;;;;5.53;5.13;;;;;;;21.78;100.00;96983.31;5111821;28;20204;-58
2023/09/14 11:12:51;;;;;;;6.05;5.38;;;;;;;21.90;100.00;96985.38;5112009;28;20624;-60
2023/09/14 11:15:21;;;;;;;6.20;5.70;;;;;;;22.00;100.00;96994.75;5112109;28;20193;-59
2023/09/14 11:17:49;;;;;;;6.80;5.50;;;;;;;21.89;98.23;96981.03;5111898;28;20201;-58
2023/09/14 11:20:39;;;;;;;5.10;4.70;;;;;;;21.77;96.89;96978.94;5112228;28;20201;-58
2023/09/14 11:23:08;;;;;;;5.22;4.82;;;;;;;21.79;99.09;96982.25;5111447;28;20633;-58